ENGM Airport Information

Runway Information
Runway 01R Length 9678 ft width 148 ft
Elevation 670 ft Threshold ft Heading 16
Runway 19L Length 9678 ft Width 148 ft
Elevation 681 ft Threshold ft Heading 196
Runway 01L Length 11811 ft width 148 ft
Elevation 656 ft Threshold ft Heading 16
Runway 19R Length 11811 ft Width 148 ft
Elevation 675 ft Threshold ft Heading 196
Airport Frequencies
Type APP Name APP Frequency 119.975 MHZ
Type ATIS Name ATIS Frequency 126.125 MHZ
Type CLD Name CLNC DEL Frequency 121.6 MHZ
Type DIR Name DIRECTOR Frequency 131.35 MHZ
Type GND Name GND Frequency 121.925 MHZ
Type MISC Name DE ICING Frequency 131.975 MHZ
Type OPS Name WINGOPS Frequency 29.38 MHZ
Type PMSV Name PMSV METRO Frequency 134.175 MHZ
Type TWR Name TWR Frequency 118.3 MHZ
Airport Navaids
Type NDB Name Bergerud Frequency 316 KHZ
Type VOR-DME Name Gardermoen Frequency 115950 KHZ
Type NDB Name Oppaker Frequency 334 KHZ
Type NDB Name Solberg Frequency 414 KHZ
Type NDB Name Soknen Frequency 387 KHZ
Airport Weather Information & NOTAM
ADDS - METARS form results

(0555 UTC 03 December 2022)
Data provider http://aviationweather.gov/metar/data/
 
METAR text: ENGM 030550Z 04004KT 9999 BKN021 M00/M03 Q1037 NOSIG
Conditions at: ENGM (OSLO/GARDERMOEN , NO) observed 0550 UTC 03 December 2022
Temperature: 0.0°C (32°F)
Dewpoint: -3.0°C (27°F) [RH = 80%]
Pressure (altimeter): 30.62 inches Hg (1037.0 mb)
Winds: from the NE (40 degrees) at 5 MPH (4 knots; 2.1 m/s)
Visibility: 6 or more miles (10+ km)
Ceiling: 2100 feet AGL
Clouds: broken clouds at 2100 feet AGL
Weather: no significant weather observed at this time

METAR text: ENGM 030520Z 06004KT 9999 BKN020 M00/M02 Q1037 NOSIG
Conditions at: ENGM (OSLO/GARDERMOEN , NO) observed 0520 UTC 03 December 2022
Temperature: 0.0°C (32°F)
Dewpoint: -2.0°C (28°F) [RH = 86%]
Pressure (altimeter): 30.62 inches Hg (1037.0 mb)
Winds: from the ENE (60 degrees) at 5 MPH (4 knots; 2.1 m/s)
Visibility: 6 or more miles (10+ km)
Ceiling: 2000 feet AGL
Clouds: broken clouds at 2000 feet AGL
Weather: no significant weather observed at this time

Forecast for: ENGM (OSLO/GARDERMOEN , NO)
Text: TAF ENGM 0306/0406 02008KT 9999 -SNRA BKN030
Forecast period: 0600 UTC 03 December 2022 to 0600 UTC 04 December 2022
Forecast type: FROM: standard forecast or significant change
Winds: from the NNE (20 degrees) at 9 MPH (8 knots; 4.1 m/s)
Visibility: 6 or more miles (10+ km)
Ceiling: 3000 feet AGL
Clouds: broken clouds at 3000 feet AGL
Weather: -SN -RA  (light snow, light rain)
Text: TEMPO 0306/0318 BKN012
Forecast period: 0600 to 1800 UTC 03 December 2022
Forecast type: TEMPORARY: The following changes expected for less than half the time period
Visibility: missing
Ceiling: 1200 feet AGL
Clouds: broken clouds at 1200 feet AGL
Weather: no significant weather forecast for this period